createdAt,value
2022-12-19T00:01:46.973Z,33.10
2022-12-19T00:04:31.695Z,34.66
2022-12-19T00:07:16.599Z,35.33
2022-12-19T00:10:01.467Z,33.65
2022-12-19T00:12:46.166Z,33.90
2022-12-19T00:15:31.023Z,34.67
2022-12-19T00:18:15.785Z,33.41
2022-12-19T00:21:00.495Z,32.96
2022-12-19T00:23:45.224Z,32.54
2022-12-19T00:26:30.087Z,34.31
2022-12-19T00:29:14.952Z,35.52
2022-12-19T00:32:01.171Z,32.93
2022-12-19T00:34:45.919Z,33.30
2022-12-19T00:37:30.573Z,34.21
2022-12-19T00:40:15.416Z,32.93
2022-12-19T00:43:00.201Z,32.50
2022-12-19T00:45:45.542Z,32.70
2022-12-19T00:48:30.709Z,33.24
2022-12-19T00:51:15.463Z,33.79
2022-12-19T00:54:00.225Z,33.76
2022-12-19T00:56:46.956Z,35.74
2022-12-19T00:59:31.634Z,34.58
2022-12-19T01:02:16.426Z,34.09
2022-12-19T01:05:01.567Z,33.51
2022-12-19T01:07:46.290Z,34.19
2022-12-19T01:10:31.032Z,34.16
2022-12-19T01:13:15.733Z,33.23
2022-12-19T01:16:00.656Z,32.65
2022-12-19T01:18:45.384Z,33.41
2022-12-19T01:21:30.174Z,33.89
2022-12-19T01:24:18.335Z,34.93
2022-12-19T01:27:04.330Z,34.33
2022-12-19T01:29:52.175Z,33.67
2022-12-19T01:32:37.804Z,34.14
2022-12-19T01:35:22.574Z,34.14
2022-12-19T01:38:08.444Z,34.20
2022-12-19T01:40:53.710Z,35.79
2022-12-19T01:43:38.403Z,35.59
2022-12-19T01:46:24.866Z,35.11
2022-12-19T01:49:12.486Z,35.37
2022-12-19T01:51:58.588Z,35.01
2022-12-19T01:54:43.395Z,35.72
2022-12-19T01:57:27.977Z,36.48
2022-12-19T02:00:12.923Z,37.22
2022-12-19T02:02:57.721Z,36.63
2022-12-19T02:05:43.016Z,36.49
2022-12-19T02:08:27.809Z,36.36
2022-12-19T02:11:14.618Z,36.63
2022-12-19T02:13:59.394Z,36.22
2022-12-19T02:16:44.153Z,35.61
2022-12-19T02:19:28.993Z,34.66
2022-12-19T02:22:18.758Z,35.94
2022-12-19T02:25:03.899Z,35.78
2022-12-19T02:27:48.639Z,34.96
2022-12-19T02:30:33.254Z,34.46
2022-12-19T02:33:18.075Z,33.27
2022-12-19T02:36:02.811Z,33.15
2022-12-19T02:38:47.537Z,33.70
2022-12-19T02:41:32.297Z,32.81
2022-12-19T02:44:16.985Z,31.35
2022-12-19T02:47:01.715Z,31.62
2022-12-19T02:49:46.595Z,30.97
2022-12-19T02:52:31.496Z,32.02
2022-12-19T02:55:16.123Z,33.95
2022-12-19T02:58:00.991Z,33.08
2022-12-19T03:00:45.743Z,32.80
2022-12-19T03:03:30.580Z,33.36
2022-12-19T03:06:15.243Z,33.29
2022-12-19T03:09:00.111Z,32.64
2022-12-19T03:11:44.900Z,33.15
2022-12-19T03:14:29.556Z,33.12
2022-12-19T03:17:14.489Z,33.20
2022-12-19T03:19:59.193Z,34.52
2022-12-19T03:22:43.938Z,36.27
2022-12-19T03:25:28.636Z,36.55
2022-12-19T03:28:13.427Z,35.83
2022-12-19T03:30:58.116Z,35.39
2022-12-19T03:33:43.309Z,36.01
2022-12-19T03:36:27.965Z,35.91
2022-12-19T03:39:12.784Z,35.65
2022-12-19T03:41:57.448Z,36.90
2022-12-19T03:44:42.185Z,37.36
2022-12-19T03:47:27.435Z,37.85
2022-12-19T03:50:12.209Z,36.43
2022-12-19T03:52:56.986Z,39.01
2022-12-19T03:55:41.661Z,38.34
2022-12-19T03:58:26.483Z,37.30
2022-12-19T04:01:11.244Z,38.25
2022-12-19T04:03:55.979Z,38.06
2022-12-19T04:06:41.125Z,37.30
2022-12-19T04:09:25.834Z,37.04
2022-12-19T04:12:10.590Z,36.34
2022-12-19T04:14:55.246Z,35.41
2022-12-19T04:17:40.119Z,34.66
2022-12-19T04:20:24.815Z,36.06
2022-12-19T04:23:10.113Z,35.53
2022-12-19T04:25:54.792Z,34.64
2022-12-19T04:28:39.574Z,35.32
2022-12-19T04:31:24.328Z,35.66
2022-12-19T04:34:09.037Z,34.86
2022-12-19T04:36:53.704Z,35.60
2022-12-19T04:39:38.560Z,35.72
2022-12-19T04:42:23.439Z,34.96
2022-12-19T04:45:08.223Z,35.25
2022-12-19T04:47:53.663Z,34.94
2022-12-19T04:50:38.420Z,35.17
2022-12-19T04:53:23.599Z,34.59
2022-12-19T04:56:08.489Z,34.07
2022-12-19T04:58:53.281Z,34.63
2022-12-19T05:01:38.020Z,34.53
2022-12-19T05:04:23.288Z,34.87
2022-12-19T05:07:08.192Z,35.56
2022-12-19T05:09:53.031Z,35.16
2022-12-19T05:12:37.761Z,34.16
2022-12-19T05:15:22.564Z,34.46
2022-12-19T05:18:07.404Z,34.67
2022-12-19T05:20:52.080Z,34.54
2022-12-19T05:23:36.973Z,34.30
2022-12-19T05:26:21.674Z,34.08
2022-12-19T05:29:06.653Z,34.80
2022-12-19T05:31:51.606Z,35.68
2022-12-19T05:34:36.296Z,35.69
2022-12-19T05:37:21.152Z,34.94
2022-12-19T05:40:05.796Z,35.37
2022-12-19T05:42:50.581Z,36.04
2022-12-19T05:45:35.316Z,37.06
2022-12-19T05:48:20.600Z,36.99
2022-12-19T05:51:05.275Z,37.49
2022-12-19T05:53:50.152Z,36.91
2022-12-19T05:56:34.907Z,36.93
2022-12-19T05:59:19.668Z,37.80
2022-12-19T06:02:04.553Z,38.11
2022-12-19T06:04:49.717Z,37.15
2022-12-19T06:07:34.520Z,37.13
2022-12-19T06:10:19.310Z,37.98
2022-12-19T06:13:04.100Z,37.69
2022-12-19T06:15:48.834Z,36.69
2022-12-19T06:18:33.520Z,35.76
2022-12-19T06:21:18.210Z,36.28
2022-12-19T06:24:03.156Z,36.42
2022-12-19T06:26:48.042Z,36.70
2022-12-19T06:29:32.801Z,36.32
2022-12-19T06:32:17.716Z,36.65
2022-12-19T06:35:04.832Z,36.49
2022-12-19T06:37:50.142Z,36.50
2022-12-19T06:40:34.775Z,36.22
2022-12-19T06:43:19.587Z,36.58
2022-12-19T06:46:04.620Z,36.47
2022-12-19T06:48:49.682Z,35.84
2022-12-19T06:51:34.444Z,35.95
2022-12-19T06:54:19.107Z,36.08
2022-12-19T06:57:04.038Z,36.58
2022-12-19T06:59:48.840Z,35.76
2022-12-19T07:02:33.758Z,36.14
2022-12-19T07:05:18.978Z,36.54
2022-12-19T07:08:03.765Z,36.60
2022-12-19T07:10:48.575Z,36.87
2022-12-19T07:13:33.182Z,37.00
2022-12-19T07:16:18.022Z,36.95
2022-12-19T07:19:02.689Z,36.80
2022-12-19T07:21:47.588Z,36.17
2022-12-19T07:24:32.242Z,36.35
2022-12-19T07:27:16.923Z,36.04
2022-12-19T07:30:01.633Z,35.54
2022-12-19T07:32:46.441Z,34.80
2022-12-19T07:35:31.242Z,35.15
2022-12-19T07:38:15.975Z,35.80
2022-12-19T07:41:00.720Z,37.16
2022-12-19T07:43:45.381Z,37.17
2022-12-19T07:46:30.224Z,36.78
2022-12-19T07:49:18.334Z,36.61
2022-12-19T07:52:07.055Z,37.77
2022-12-19T07:54:51.896Z,36.58
2022-12-19T07:57:36.617Z,36.87
2022-12-19T08:00:21.401Z,36.62
2022-12-19T08:03:05.982Z,37.13
2022-12-19T08:05:52.739Z,37.79
2022-12-19T08:08:37.574Z,37.17
2022-12-19T08:11:22.373Z,37.41
2022-12-19T08:14:07.180Z,36.91
2022-12-19T08:17:19.308Z,36.30
2022-12-19T08:19:56.745Z,36.10
2022-12-19T08:22:41.627Z,35.88
2022-12-19T08:25:26.367Z,35.94
2022-12-19T08:28:11.100Z,36.15
2022-12-19T08:30:55.884Z,36.02
2022-12-19T08:33:40.706Z,36.17
2022-12-19T08:36:25.467Z,35.80
2022-12-19T08:39:10.719Z,35.28
2022-12-19T08:41:55.420Z,34.93
2022-12-19T08:44:40.077Z,35.57
2022-12-19T08:47:24.845Z,35.68
2022-12-19T08:50:09.576Z,35.23
2022-12-19T08:52:54.281Z,35.63
2022-12-19T08:55:39.101Z,34.83
2022-12-19T08:58:23.862Z,36.30
2022-12-19T09:01:08.667Z,36.72
2022-12-19T09:04:16.437Z,37.51
2022-12-19T09:07:00.085Z,37.21
2022-12-19T09:09:44.891Z,36.04
2022-12-19T09:12:30.182Z,35.26
2022-12-19T09:15:14.797Z,34.69
2022-12-19T09:17:59.439Z,35.37
2022-12-19T09:20:44.106Z,36.42
2022-12-19T09:23:29.033Z,37.11
2022-12-19T09:26:13.773Z,36.26
2022-12-19T09:28:58.473Z,35.94
2022-12-19T09:31:43.265Z,37.58
2022-12-19T09:34:37.809Z,37.38
2022-12-19T09:37:23.814Z,37.13
2022-12-19T09:40:08.568Z,37.13
2022-12-19T09:42:53.201Z,37.07
2022-12-19T09:45:38.057Z,38.39
2022-12-19T09:48:24.439Z,35.99
2022-12-19T09:51:11.168Z,35.74
2022-12-19T09:53:56.256Z,35.51
2022-12-19T09:56:46.453Z,36.19
2022-12-19T09:59:31.719Z,36.35
2022-12-19T10:02:25.234Z,36.57
2022-12-19T10:05:19.533Z,37.44
2022-12-19T10:08:10.463Z,38.42
2022-12-19T10:12:38.877Z,37.88
2022-12-19T10:14:00.809Z,37.91
2022-12-19T10:17:08.526Z,38.68
2022-12-19T10:19:50.818Z,39.30
2022-12-19T10:22:35.607Z,38.23
2022-12-19T10:25:20.388Z,38.13
2022-12-19T10:28:05.158Z,37.08
2022-12-19T10:30:49.925Z,38.06
2022-12-19T10:33:34.690Z,37.94
2022-12-19T10:36:19.410Z,37.17
2022-12-19T10:39:04.605Z,36.98
2022-12-19T10:41:49.396Z,36.05
2022-12-19T10:44:34.100Z,36.14
2022-12-19T10:47:19.047Z,36.95
2022-12-19T10:50:09.269Z,37.77
2022-12-19T10:52:54.667Z,36.58
2022-12-19T10:55:39.434Z,37.35
2022-12-19T10:58:24.192Z,36.24
2022-12-19T11:01:09.028Z,35.59
2022-12-19T11:03:53.804Z,36.36
2022-12-19T11:06:38.521Z,35.24
2022-12-19T11:09:23.257Z,34.91
2022-12-19T11:15:34.160Z,34.62
2022-12-19T11:21:07.586Z,33.87
2022-12-19T11:29:34.133Z,35.40
2022-12-19T11:29:41.500Z,33.95
2022-12-19T11:30:41.365Z,37.90
2022-12-19T11:30:47.822Z,35.52
2022-12-19T11:33:42.805Z,36.33
2022-12-19T11:36:28.154Z,36.95
2022-12-19T11:39:12.928Z,37.53
2022-12-19T11:41:57.685Z,37.27
2022-12-19T11:44:42.285Z,37.19
2022-12-19T11:47:27.138Z,37.15
2022-12-19T11:50:11.930Z,37.00
2022-12-19T11:53:06.813Z,35.94
2022-12-19T11:55:55.121Z,36.26
2022-12-19T11:58:39.999Z,36.59
2022-12-19T12:01:25.323Z,36.68
2022-12-19T12:04:10.156Z,37.13
2022-12-19T12:06:55.363Z,37.29
2022-12-19T12:14:54.644Z,36.91
2022-12-19T12:25:10.576Z,36.12
2022-12-19T12:26:12.379Z,35.05
2022-12-19T12:31:22.988Z,35.98
2022-12-19T12:31:26.379Z,36.66
2022-12-19T12:31:40.563Z,36.67
2022-12-19T12:31:45.827Z,36.07
2022-12-19T12:35:40.776Z,36.04
2022-12-19T12:35:55.108Z,37.07
2022-12-19T12:40:32.006Z,37.15
2022-12-19T12:43:16.782Z,37.10
2022-12-19T12:46:01.675Z,36.74
2022-12-19T12:48:46.748Z,36.15
2022-12-19T12:51:31.437Z,35.85
2022-12-19T12:54:16.144Z,36.30
2022-12-19T12:57:00.872Z,36.04
2022-12-19T12:59:45.592Z,36.19
2022-12-19T13:02:30.395Z,35.51
2022-12-19T13:05:15.413Z,36.61
2022-12-19T13:08:00.330Z,35.97
2022-12-19T13:10:45.087Z,36.65
2022-12-19T13:13:29.660Z,36.73
2022-12-19T13:16:14.535Z,36.32
2022-12-19T13:18:59.595Z,37.04
2022-12-19T13:21:44.359Z,37.17
2022-12-19T13:24:29.150Z,37.23
2022-12-19T13:27:13.866Z,37.47
2022-12-19T13:29:58.560Z,37.85
2022-12-19T13:32:43.242Z,37.35
2022-12-19T13:37:06.431Z,37.14
2022-12-19T13:40:01.584Z,37.23
2022-12-19T13:41:37.725Z,37.48
2022-12-19T13:44:23.214Z,37.38
2022-12-19T13:47:07.995Z,37.49
2022-12-19T13:49:52.838Z,37.94
2022-12-19T13:52:37.633Z,38.15
2022-12-19T13:55:22.428Z,38.75
2022-12-19T13:58:07.161Z,39.24
2022-12-19T14:00:53.821Z,39.29
2022-12-19T14:03:38.969Z,39.25
2022-12-19T14:06:24.064Z,39.31
2022-12-19T14:11:06.086Z,39.43
2022-12-19T14:13:54.757Z,39.23
2022-12-19T14:15:19.233Z,38.98
2022-12-19T14:18:41.745Z,39.31
2022-12-19T14:22:06.090Z,39.10
2022-12-19T14:24:13.825Z,38.71
2022-12-19T14:28:25.685Z,38.76
2022-12-19T14:30:27.401Z,39.08
2022-12-19T14:33:46.161Z,39.81
2022-12-19T14:36:18.729Z,39.82
2022-12-19T14:39:24.644Z,39.23
2022-12-19T14:42:12.965Z,39.71
2022-12-19T14:52:51.159Z,39.40
2022-12-19T14:54:05.642Z,39.25
2022-12-19T14:54:40.048Z,39.04
2022-12-19T14:57:50.685Z,39.49
2022-12-19T15:01:07.058Z,39.41
2022-12-19T15:03:27.421Z,39.85
2022-12-19T15:07:05.412Z,40.12
2022-12-19T15:11:06.607Z,40.80
2022-12-19T15:14:47.045Z,40.67
2022-12-19T15:15:27.531Z,40.36
2022-12-19T15:18:12.310Z,40.39
2022-12-19T15:20:57.222Z,39.75
2022-12-19T15:23:41.867Z,40.43
2022-12-19T15:26:26.604Z,41.09
2022-12-19T15:29:14.093Z,41.01
2022-12-19T15:32:03.166Z,40.56
2022-12-19T15:34:51.419Z,41.58
2022-12-19T15:37:36.727Z,41.16
2022-12-19T15:40:21.358Z,41.32
2022-12-19T15:43:06.210Z,42.06
2022-12-19T15:45:50.862Z,42.43
2022-12-19T15:48:35.918Z,42.05
2022-12-19T15:51:20.568Z,41.46
2022-12-19T15:57:10.395Z,41.77
2022-12-19T15:59:55.043Z,42.04
2022-12-19T16:03:20.626Z,42.05
2022-12-19T16:05:45.139Z,42.58
2022-12-19T16:08:29.901Z,42.56
2022-12-19T16:11:14.764Z,42.90
2022-12-19T16:13:59.498Z,43.21
2022-12-19T16:16:44.264Z,42.89
2022-12-19T16:19:29.390Z,42.61
2022-12-19T16:22:14.061Z,43.23
2022-12-19T16:24:58.781Z,43.88
2022-12-19T16:27:43.472Z,43.92
2022-12-19T16:30:28.357Z,44.12
2022-12-19T16:33:13.078Z,43.88
2022-12-19T16:36:06.845Z,44.30
2022-12-19T16:38:52.431Z,44.10
2022-12-19T16:41:41.768Z,44.62
2022-12-19T16:44:28.272Z,44.46
2022-12-19T16:47:13.146Z,44.71
2022-12-19T16:49:58.432Z,44.93
2022-12-19T16:52:43.737Z,45.16
2022-12-19T16:55:28.643Z,45.60
2022-12-19T16:58:13.498Z,45.98
2022-12-19T17:00:58.486Z,45.13
2022-12-19T17:03:43.249Z,44.76
2022-12-19T17:06:28.061Z,44.73
2022-12-19T17:09:12.789Z,45.37
2022-12-19T17:11:57.476Z,44.88
2022-12-19T17:14:42.241Z,45.36
2022-12-19T17:17:27.172Z,45.43
2022-12-19T17:20:12.017Z,45.48
2022-12-19T17:22:56.718Z,45.66
2022-12-19T17:25:41.593Z,45.57
2022-12-19T17:28:26.336Z,45.33
2022-12-19T17:31:11.287Z,45.63
2022-12-19T17:33:56.430Z,45.16
2022-12-19T17:36:41.193Z,45.79
2022-12-19T17:39:25.856Z,45.37
2022-12-19T17:42:10.670Z,45.38
2022-12-19T17:44:55.348Z,44.91
2022-12-19T17:47:40.057Z,44.87
2022-12-19T17:50:24.837Z,44.20
2022-12-19T17:53:09.652Z,44.17
2022-12-19T17:55:54.521Z,44.40
2022-12-19T17:58:39.298Z,44.96
2022-12-19T18:01:24.181Z,44.61
2022-12-19T18:04:09.281Z,45.00
2022-12-19T18:06:53.965Z,44.39
2022-12-19T18:09:38.658Z,44.21
2022-12-19T18:12:23.460Z,44.24
2022-12-19T18:15:08.253Z,44.01
2022-12-19T18:17:53.122Z,44.54
2022-12-19T18:20:37.956Z,44.35
2022-12-19T18:23:22.697Z,44.46
2022-12-19T18:26:07.473Z,44.54
2022-12-19T18:28:52.308Z,44.35
2022-12-19T18:31:37.044Z,45.13
2022-12-19T18:34:21.665Z,44.90
2022-12-19T18:37:06.470Z,44.77
2022-12-19T18:39:51.187Z,44.60
2022-12-19T18:42:36.018Z,45.33
2022-12-19T18:45:20.904Z,45.26
2022-12-19T18:48:05.601Z,44.66
2022-12-19T18:50:50.445Z,44.71
2022-12-19T18:53:36.313Z,45.72
2022-12-19T18:56:21.517Z,45.36
2022-12-19T18:59:06.241Z,45.15
2022-12-19T19:01:51.305Z,45.77
2022-12-19T19:04:36.216Z,45.64
2022-12-19T19:07:21.081Z,45.29
2022-12-19T19:10:05.916Z,45.89
2022-12-19T19:12:50.594Z,46.02
2022-12-19T19:15:35.545Z,44.74
2022-12-19T19:18:20.358Z,45.11
2022-12-19T19:21:05.289Z,45.07
2022-12-19T19:23:50.114Z,45.12
2022-12-19T19:26:35.030Z,45.00
2022-12-19T19:29:21.293Z,45.04
2022-12-19T19:32:06.619Z,44.84
2022-12-19T19:34:51.974Z,44.79
2022-12-19T19:37:36.573Z,45.17
2022-12-19T19:40:22.384Z,45.09
2022-12-19T19:43:07.688Z,45.38
2022-12-19T19:45:52.466Z,45.68
2022-12-19T19:48:37.212Z,46.31
2022-12-19T19:51:22.437Z,46.72
2022-12-19T19:54:07.316Z,45.97
2022-12-19T19:56:52.147Z,46.33
2022-12-19T19:59:37.068Z,46.31
2022-12-19T20:02:21.954Z,46.18
2022-12-19T20:05:07.160Z,46.03
2022-12-19T20:07:51.890Z,46.14
2022-12-19T20:10:36.822Z,45.80
2022-12-19T20:13:21.532Z,46.19
2022-12-19T20:16:06.558Z,46.06
2022-12-19T20:18:51.773Z,45.40
2022-12-19T20:21:36.467Z,45.70
2022-12-19T20:24:21.290Z,46.20
2022-12-19T20:27:06.047Z,46.37
2022-12-19T20:29:50.809Z,46.55
2022-12-19T20:32:35.612Z,46.33
2022-12-19T20:35:20.466Z,46.54
2022-12-19T20:38:05.195Z,46.81
2022-12-19T20:40:50.071Z,46.67
2022-12-19T20:43:35.019Z,46.77
2022-12-19T20:46:19.734Z,46.69
2022-12-19T20:49:04.517Z,46.94
2022-12-19T20:51:49.288Z,46.91
2022-12-19T20:54:34.001Z,46.84
2022-12-19T20:57:18.757Z,46.98
2022-12-19T21:00:03.771Z,47.24
2022-12-19T21:03:25.650Z,47.15
2022-12-19T21:05:53.583Z,46.92
2022-12-19T21:08:38.324Z,46.93
2022-12-19T21:11:23.129Z,47.18
2022-12-19T21:14:07.798Z,46.78
2022-12-19T21:16:52.539Z,46.93
2022-12-19T21:19:37.374Z,47.28
2022-12-19T21:22:22.111Z,48.04
2022-12-19T21:25:06.791Z,47.53
2022-12-19T21:27:51.621Z,47.68
2022-12-19T21:30:36.346Z,47.76
2022-12-19T21:33:21.030Z,47.12
2022-12-19T21:36:05.785Z,47.42
2022-12-19T21:38:50.437Z,47.09
2022-12-19T21:41:35.114Z,46.91
2022-12-19T21:44:19.848Z,47.01
2022-12-19T21:47:04.643Z,46.59
2022-12-19T21:49:49.377Z,46.73
2022-12-19T21:52:34.035Z,46.18
2022-12-19T21:55:18.787Z,46.39
2022-12-19T21:58:03.548Z,46.18
2022-12-19T22:00:48.216Z,46.67
2022-12-19T22:03:33.241Z,46.33
2022-12-19T22:06:25.554Z,47.11
2022-12-19T22:09:12.480Z,47.36
2022-12-19T22:11:57.321Z,47.41
2022-12-19T22:14:41.972Z,47.52
2022-12-19T22:17:27.715Z,47.48
2022-12-19T22:20:12.561Z,47.53
2022-12-19T22:22:57.241Z,47.74
2022-12-19T22:25:41.936Z,47.46
2022-12-19T22:28:26.643Z,47.92
2022-12-19T22:31:11.446Z,47.54
2022-12-19T22:33:56.593Z,47.63
2022-12-19T22:36:41.285Z,47.83
2022-12-19T22:39:25.968Z,47.65
2022-12-19T22:42:10.714Z,47.01
2022-12-19T22:44:55.403Z,47.03
2022-12-19T22:47:40.257Z,46.82
2022-12-19T22:50:25.018Z,46.42
2022-12-19T22:53:12.885Z,46.55
2022-12-19T22:55:58.305Z,46.32
2022-12-19T22:58:42.997Z,46.57
2022-12-19T23:01:27.879Z,46.38
2022-12-19T23:04:13.201Z,47.04
2022-12-19T23:06:58.137Z,47.49
2022-12-19T23:09:42.927Z,47.22
2022-12-19T23:12:27.564Z,47.89
2022-12-19T23:15:12.406Z,48.09
2022-12-19T23:17:57.061Z,47.91
2022-12-19T23:20:41.780Z,47.53
2022-12-19T23:23:26.397Z,48.38
2022-12-19T23:26:15.526Z,48.16
2022-12-19T23:29:01.195Z,48.11
2022-12-19T23:31:45.861Z,48.41
2022-12-19T23:34:31.031Z,48.11
2022-12-19T23:37:15.826Z,48.37
2022-12-19T23:40:00.626Z,48.26
2022-12-19T23:42:45.460Z,48.42
2022-12-19T23:45:30.315Z,47.96
2022-12-19T23:48:15.099Z,48.23
2022-12-19T23:50:59.775Z,48.47
2022-12-19T23:53:44.535Z,48.34
2022-12-19T23:56:29.260Z,48.89
2022-12-19T23:59:13.944Z,48.83
